Kirsten H — WY7979 — position and weather

sailwx.info

Track history (hours):
 
Tides and Currents Weather Stations Pressure Air Temp Water Temp Dewpoint Dewpoint Depression Visibility Wind Speed Wind Dir Waves Ship Positions

Kirsten H

Owner: BOYER TOWING, KETCHIKAN, AK. More information available from US FCC via Universal Licensing System and Coast Guard Vessel Documentation Center.

Last reported at 2017-Dec-16 05:09 UTC. Time now 2018-Feb-23 06:34 UTC.
Position N 54°17' W 130°33'.
Warning: this ship's position is months out of date.

Length 22 m; draft 3.7 m.

Type: Tug. MMSI: 366623050.

Date/timePositionNaut miles runAvg speedWind from/ knotsBaromVisibWave heightAir tempDewpointWater temp
2017-Dec-16 05:09N 54°17' W 130°33'1 8.9
2017-Dec-16 05:00N 54°16' W 130°32'5 9.2
2017-Dec-16 04:30N 54°12' W 130°28'4 8.8
2017-Dec-16 04:00N 54°08' W 130°24'4 8.7
2017-Dec-16 03:30N 54°05' W 130°18'4 8.6
2017-Dec-16 03:00N 54°02' W 130°14'4 8.9
2017-Dec-16 02:30N 53°57' W 130°12'4 7.8
2017-Dec-16 01:58N 53°54' W 130°08'4 8.8
2017-Dec-16 01:30N 53°51' W 130°03'4 8.4
2017-Dec-16 01:00N 53°48' W 129°58'97 7.1
2017-Dec-15 11:23N 52°28' W 128°27'3 7.7
2017-Dec-15 10:58N 52°25' W 128°29'4 7.7
2017-Dec-15 10:30N 52°22' W 128°32'19 6.9
2017-Dec-15 07:46N 52°09' W 128°08'2 8.6
2017-Dec-15 07:30N 52°07' W 128°08'8 7.8
2017-Dec-15 06:27N 52°03' W 127°56'3 7.1
2017-Dec-15 05:59N 52°00' W 127°56'4 8.2
2017-Dec-15 05:30N 51°56' W 127°57'4 8.3
2017-Dec-15 05:00N 51°52' W 127°57'4 8.5
2017-Dec-15 04:30N 51°48' W 127°56'4 8.6
2017-Dec-15 04:00N 51°44' W 127°55'13 8.6
2017-Dec-15 02:29N 51°31' W 127°52'65 8.0
2017-Dec-14 18:19N 50°39' W 126°49'3 8.4
2017-Dec-14 17:58N 50°37' W 126°46'5 7.4
2017-Dec-14 17:20N 50°33' W 126°41'49 9.6
2017-Dec-14 12:11N 50°21' W 125°26'2 8.8
2017-Dec-14 12:00N 50°19' W 125°25'4 9.0
2017-Dec-14 11:30N 50°15' W 125°23'4 8.6
2017-Dec-14 11:00N 50°11' W 125°22'4 7.3
2017-Dec-14 10:30N 50°07' W 125°20'3 5.6
2017-Dec-14 10:00N 50°05' W 125°17'2 5.0
2017-Dec-14 09:30N 50°03' W 125°15'2 4.1
2017-Dec-14 09:00N 50°02' W 125°13'2 3.2
2017-Dec-14 08:30N 50°00' W 125°12'1 2.3
2017-Dec-14 08:00N 49°59' W 125°12'2 4.6
2017-Dec-14 07:30N 49°58' W 125°09'3 5.3
2017-Dec-14 07:00N 49°56' W 125°06'3 5.2
2017-Dec-14 06:30N 49°54' W 125°03'2 3.8
2017-Dec-14 06:00N 49°53' W 125°01'2 3.4
2017-Dec-14 05:30N 49°52' W 124°59'2 3.3
2017-Dec-14 04:59N 49°51' W 124°57'1 2.8
2017-Dec-14 04:30N 49°50' W 124°55'1 2.2
2017-Dec-14 04:00N 49°49' W 124°54'1 1.8
2017-Dec-14 03:30N 49°49' W 124°52'1 1.8
2017-Dec-14 03:00N 49°48' W 124°51'1 1.9
2017-Dec-14 02:30N 49°48' W 124°50'1 2.3
2017-Dec-14 02:00N 49°47' W 124°49'2 3.8
2017-Dec-14 01:30N 49°46' W 124°47'4 8.3
2017-Dec-14 01:00N 49°43' W 124°41'5 8.4
2017-Dec-14 00:25N 49°40' W 124°35'4 8.2
2017-Dec-13 23:55N 49°38' W 124°30'32 8.3
2017-Dec-13 20:02N 49°19' W 123°50'0 8.4
2017-Dec-13 20:00N 49°19' W 123°50'13 8.4
2017-Dec-13 18:27N 49°11' W 123°34'4 8.0
2017-Dec-13 18:00N 49°09' W 123°29'4 8.2
2017-Dec-13 17:30N 49°06' W 123°24'4 8.6
2017-Dec-13 17:00N 49°04' W 123°19'4 8.4
2017-Dec-13 16:29N 49°01' W 123°15'4 7.8
2017-Dec-13 15:59N 48°58' W 123°10'3 7.3
2017-Dec-13 15:30N 48°56' W 123°06'4 7.3
2017-Dec-13 14:58N 48°53' W 123°02'4 8.1
2017-Dec-13 14:29N 48°51' W 122°57'9 8.1
2017-Dec-13 13:25N 48°46' W 122°46'3 8.3
2017-Dec-13 13:00N 48°43' W 122°44'4 7.4
2017-Dec-13 12:30N 48°39' W 122°43'4 7.9
2017-Dec-13 12:00N 48°36' W 122°45'4 8.0
2017-Dec-13 11:30N 48°32' W 122°44'4 8.4
2017-Dec-13 11:00N 48°27' W 122°44'4 8.3
2017-Dec-13 10:30N 48°23' W 122°44'4 8.1
2017-Dec-13 10:00N 48°19' W 122°46'19 5.9
2017-Dec-13 06:49N 48°01' W 122°37'2 6.6
2017-Dec-13 06:27N 47°59' W 122°36'3 6.5
2017-Dec-13 06:00N 47°57' W 122°33'4 7.3
2017-Dec-13 05:30N 47°54' W 122°29'4 8.0
2017-Dec-13 05:00N 47°51' W 122°27'4 8.5
2017-Dec-13 04:30N 47°47' W 122°26'4 8.2
2017-Dec-13 04:00N 47°42' W 122°27'4 8.0
2017-Dec-13 03:30N 47°38' W 122°26'4 7.5
2017-Dec-13 03:00N 47°36' W 122°23'0 1.0
2017-Dec-13 02:30N 47°35' W 122°22'0 0.0
2017-Dec-13 02:00N 47°35' W 122°22'1 1.6
2017-Dec-13 01:30N 47°35' W 122°21'0 0.1
2017-Dec-13 01:00N 47°35' W 122°21'0 0.0
2017-Dec-13 00:30N 47°35' W 122°21'0 0.0
2017-Dec-13 00:00N 47°35' W 122°21'1 2.0
2017-Dec-12 23:30N 47°34' W 122°21'2 4.5
2017-Dec-12 23:00N 47°32' W 122°20'2 3.2
2017-Dec-12 22:30N 47°34' W 122°21'2 4.2
2017-Dec-12 22:00N 47°35' W 122°22'5 9.5
2017-Dec-12 21:30N 47°39' W 122°28'5 9.4
2017-Dec-12 21:00N 47°43' W 122°28'5 9.7
2017-Dec-12 20:30N 47°48' W 122°28'510.0
2017-Dec-12 20:00N 47°53' W 122°30'510.4
2017-Dec-12 19:30N 47°57' W 122°35'  
Track history (hours):
 
Tides and Currents Weather Stations Pressure Air Temp Water Temp Dewpoint Dewpoint Depression Visibility Wind Speed Wind Dir Waves Ship Positions

Kirsten H

Owner: BOYER TOWING, KETCHIKAN, AK. More information available from US FCC via Universal Licensing System and Coast Guard Vessel Documentation Center.

Last reported at 2017-Dec-16 05:09 UTC. Time now 2018-Feb-23 06:34 UTC.
Position N 54°17' W 130°33'.
Warning: this ship's position is months out of date.

Length 22 m; draft 3.7 m.

Type: Tug. MMSI: 366623050.

Date/timePositionNaut miles runAvg speedWind from/ knotsBaromVisibWave heightAir tempDewpointWater temp
2017-Dec-16 05:09N 54°17' W 130°33'1 8.9
2017-Dec-16 05:00N 54°16' W 130°32'5 9.2
2017-Dec-16 04:30N 54°12' W 130°28'4 8.8
2017-Dec-16 04:00N 54°08' W 130°24'4 8.7
2017-Dec-16 03:30N 54°05' W 130°18'4 8.6
2017-Dec-16 03:00N 54°02' W 130°14'4 8.9
2017-Dec-16 02:30N 53°57' W 130°12'4 7.8
2017-Dec-16 01:58N 53°54' W 130°08'4 8.8
2017-Dec-16 01:30N 53°51' W 130°03'4 8.4
2017-Dec-16 01:00N 53°48' W 129°58'97 7.1
2017-Dec-15 11:23N 52°28' W 128°27'3 7.7
2017-Dec-15 10:58N 52°25' W 128°29'4 7.7
2017-Dec-15 10:30N 52°22' W 128°32'19 6.9
2017-Dec-15 07:46N 52°09' W 128°08'2 8.6
2017-Dec-15 07:30N 52°07' W 128°08'8 7.8
2017-Dec-15 06:27N 52°03' W 127°56'3 7.1
2017-Dec-15 05:59N 52°00' W 127°56'4 8.2
2017-Dec-15 05:30N 51°56' W 127°57'4 8.3
2017-Dec-15 05:00N 51°52' W 127°57'4 8.5
2017-Dec-15 04:30N 51°48' W 127°56'4 8.6
2017-Dec-15 04:00N 51°44' W 127°55'13 8.6
2017-Dec-15 02:29N 51°31' W 127°52'65 8.0
2017-Dec-14 18:19N 50°39' W 126°49'3 8.4
2017-Dec-14 17:58N 50°37' W 126°46'5 7.4
2017-Dec-14 17:20N 50°33' W 126°41'49 9.6
2017-Dec-14 12:11N 50°21' W 125°26'2 8.8
2017-Dec-14 12:00N 50°19' W 125°25'4 9.0
2017-Dec-14 11:30N 50°15' W 125°23'4 8.6
2017-Dec-14 11:00N 50°11' W 125°22'4 7.3
2017-Dec-14 10:30N 50°07' W 125°20'3 5.6
2017-Dec-14 10:00N 50°05' W 125°17'2 5.0
2017-Dec-14 09:30N 50°03' W 125°15'2 4.1
2017-Dec-14 09:00N 50°02' W 125°13'2 3.2
2017-Dec-14 08:30N 50°00' W 125°12'1 2.3
2017-Dec-14 08:00N 49°59' W 125°12'2 4.6
2017-Dec-14 07:30N 49°58' W 125°09'3 5.3
2017-Dec-14 07:00N 49°56' W 125°06'3 5.2
2017-Dec-14 06:30N 49°54' W 125°03'2 3.8
2017-Dec-14 06:00N 49°53' W 125°01'2 3.4
2017-Dec-14 05:30N 49°52' W 124°59'2 3.3
2017-Dec-14 04:59N 49°51' W 124°57'1 2.8
2017-Dec-14 04:30N 49°50' W 124°55'1 2.2
2017-Dec-14 04:00N 49°49' W 124°54'1 1.8
2017-Dec-14 03:30N 49°49' W 124°52'1 1.8
2017-Dec-14 03:00N 49°48' W 124°51'1 1.9
2017-Dec-14 02:30N 49°48' W 124°50'1 2.3
2017-Dec-14 02:00N 49°47' W 124°49'2 3.8
2017-Dec-14 01:30N 49°46' W 124°47'4 8.3
2017-Dec-14 01:00N 49°43' W 124°41'5 8.4
2017-Dec-14 00:25N 49°40' W 124°35'4 8.2
2017-Dec-13 23:55N 49°38' W 124°30'32 8.3
2017-Dec-13 20:02N 49°19' W 123°50'0 8.4
2017-Dec-13 20:00N 49°19' W 123°50'13 8.4
2017-Dec-13 18:27N 49°11' W 123°34'4 8.0
2017-Dec-13 18:00N 49°09' W 123°29'4 8.2
2017-Dec-13 17:30N 49°06' W 123°24'4 8.6
2017-Dec-13 17:00N 49°04' W 123°19'4 8.4
2017-Dec-13 16:29N 49°01' W 123°15'4 7.8
2017-Dec-13 15:59N 48°58' W 123°10'3 7.3
2017-Dec-13 15:30N 48°56' W 123°06'4 7.3
2017-Dec-13 14:58N 48°53' W 123°02'4 8.1
2017-Dec-13 14:29N 48°51' W 122°57'9 8.1
2017-Dec-13 13:25N 48°46' W 122°46'3 8.3
2017-Dec-13 13:00N 48°43' W 122°44'4 7.4
2017-Dec-13 12:30N 48°39' W 122°43'4 7.9
2017-Dec-13 12:00N 48°36' W 122°45'4 8.0
2017-Dec-13 11:30N 48°32' W 122°44'4 8.4
2017-Dec-13 11:00N 48°27' W 122°44'4 8.3
2017-Dec-13 10:30N 48°23' W 122°44'4 8.1
2017-Dec-13 10:00N 48°19' W 122°46'19 5.9
2017-Dec-13 06:49N 48°01' W 122°37'2 6.6
2017-Dec-13 06:27N 47°59' W 122°36'3 6.5
2017-Dec-13 06:00N 47°57' W 122°33'4 7.3
2017-Dec-13 05:30N 47°54' W 122°29'4 8.0
2017-Dec-13 05:00N 47°51' W 122°27'4 8.5
2017-Dec-13 04:30N 47°47' W 122°26'4 8.2
2017-Dec-13 04:00N 47°42' W 122°27'4 8.0
2017-Dec-13 03:30N 47°38' W 122°26'4 7.5
2017-Dec-13 03:00N 47°36' W 122°23'0 1.0
2017-Dec-13 02:30N 47°35' W 122°22'0 0.0
2017-Dec-13 02:00N 47°35' W 122°22'1 1.6
2017-Dec-13 01:30N 47°35' W 122°21'0 0.1
2017-Dec-13 01:00N 47°35' W 122°21'0 0.0
2017-Dec-13 00:30N 47°35' W 122°21'0 0.0
2017-Dec-13 00:00N 47°35' W 122°21'1 2.0
2017-Dec-12 23:30N 47°34' W 122°21'2 4.5
2017-Dec-12 23:00N 47°32' W 122°20'2 3.2
2017-Dec-12 22:30N 47°34' W 122°21'2 4.2
2017-Dec-12 22:00N 47°35' W 122°22'5 9.5
2017-Dec-12 21:30N 47°39' W 122°28'5 9.4
2017-Dec-12 21:00N 47°43' W 122°28'5 9.7
2017-Dec-12 20:30N 47°48' W 122°28'510.0
2017-Dec-12 20:00N 47°53' W 122°30'510.4
2017-Dec-12 19:30N 47°57' W 122°35'  

Dump ship's entire track history